createdAt,value
2019-04-14T00:01:48.173Z,9.83
2019-04-14T00:04:16.250Z,11.60
2019-04-14T00:06:44.183Z,8.93
2019-04-14T00:09:14.091Z,8.47
2019-04-14T00:11:44.126Z,9.47
2019-04-14T00:14:10.273Z,7.23
2019-04-14T00:16:36.584Z,8.20
2019-04-14T00:19:02.931Z,7.93
2019-04-14T00:21:30.161Z,8.37
2019-04-14T00:23:56.685Z,7.57
2019-04-14T00:26:33.514Z,8.57
2019-04-14T00:29:00.217Z,8.43
2019-04-14T00:31:28.414Z,8.47
2019-04-14T00:33:56.685Z,7.23
2019-04-14T00:36:39.805Z,9.37
2019-04-14T00:39:14.648Z,7.77
2019-04-14T00:41:58.569Z,7.20
2019-04-14T00:44:40.979Z,10.03
2019-04-14T00:47:09.359Z,7.17
2019-04-14T00:49:35.528Z,7.90
2019-04-14T00:52:01.807Z,10.90
2019-04-14T00:54:28.248Z,8.77
2019-04-14T00:56:54.539Z,8.17
2019-04-14T00:59:22.050Z,8.47
2019-04-14T01:01:48.656Z,8.43
2019-04-14T01:04:14.888Z,8.87
2019-04-14T01:06:41.017Z,7.43
2019-04-14T01:09:10.688Z,7.67
2019-04-14T01:11:37.872Z,9.03
2019-04-14T01:14:04.143Z,11.23
2019-04-14T01:16:30.257Z,7.37
2019-04-14T01:18:56.490Z,7.47
2019-04-14T01:21:22.701Z,7.40
2019-04-14T01:23:50.092Z,8.70
2019-04-14T01:26:16.373Z,8.03
2019-04-14T01:28:43.956Z,8.83
2019-04-14T01:31:10.210Z,8.13
2019-04-14T01:33:36.411Z,8.70
2019-04-14T01:36:03.844Z,9.03
2019-04-14T01:38:30.161Z,8.43
2019-04-14T01:40:56.289Z,7.80
2019-04-14T01:43:23.495Z,7.73
2019-04-14T01:46:03.986Z,9.47
2019-04-14T01:48:19.258Z,7.17
2019-04-14T01:51:02.748Z,7.30
2019-04-14T01:53:33.757Z,7.30
2019-04-14T01:56:12.255Z,9.83
2019-04-14T01:58:43.197Z,7.67
2019-04-14T02:01:11.244Z,7.67
2019-04-14T02:03:38.760Z,8.20
2019-04-14T02:06:05.125Z,9.07
2019-04-14T02:08:32.899Z,9.93
2019-04-14T02:10:59.076Z,7.67
2019-04-14T02:13:25.344Z,8.83
2019-04-14T02:15:52.781Z,8.57
2019-04-14T02:18:19.130Z,9.20
2019-04-14T02:20:45.334Z,9.83
2019-04-14T02:23:12.570Z,9.37
2019-04-14T02:25:38.793Z,8.63
2019-04-14T02:28:04.947Z,9.67
2019-04-14T02:30:39.214Z,8.67
2019-04-14T02:33:32.204Z,7.63
2019-04-14T02:36:01.596Z,7.73
2019-04-14T02:40:57.968Z,7.30
2019-04-14T02:43:27.559Z,7.50
2019-04-14T02:48:33.334Z,8.70
2019-04-14T02:50:40.303Z,8.00
2019-04-14T02:53:20.904Z,8.17
2019-04-14T02:55:46.796Z,7.30
2019-04-14T02:58:14.955Z,7.53
2019-04-14T03:03:16.814Z,7.77
2019-04-14T03:05:34.364Z,7.10
2019-04-14T03:08:00.055Z,8.03
2019-04-14T03:13:02.286Z,6.53
2019-04-14T03:15:20.068Z,6.63
2019-04-14T03:18:18.830Z,6.40
2019-04-14T03:20:24.373Z,6.53
2019-04-14T03:23:14.326Z,6.63
2019-04-14T03:25:22.653Z,7.70
2019-04-14T03:27:59.170Z,6.13
2019-04-14T03:30:57.759Z,5.30
2019-04-14T03:38:13.097Z,3.93
2019-04-14T03:40:37.730Z,3.50
2019-04-14T03:43:03.153Z,3.20
2019-04-14T03:45:37.824Z,3.37
2019-04-14T03:48:16.822Z,3.37
2019-04-14T03:50:21.610Z,3.50
2019-04-14T03:52:59.636Z,3.20
2019-04-14T03:55:11.397Z,3.17
2019-04-14T03:57:27.063Z,3.37
2019-04-14T03:59:52.680Z,3.73
2019-04-14T04:02:18.895Z,4.53
2019-04-14T04:04:45.058Z,3.63
2019-04-14T04:07:12.383Z,3.87
2019-04-14T04:09:43.532Z,3.63
2019-04-14T04:12:09.837Z,3.90
2019-04-14T04:14:35.967Z,3.67
2019-04-14T04:17:04.075Z,4.40
2019-04-14T04:19:41.057Z,3.70
2019-04-14T04:22:26.081Z,4.40
2019-04-14T04:25:11.590Z,4.00
2019-04-14T04:27:52.621Z,4.20
2019-04-14T04:30:36.309Z,3.63
2019-04-14T04:33:22.012Z,4.10
2019-04-14T04:35:59.167Z,4.07
2019-04-14T04:38:27.219Z,4.50
2019-04-14T04:40:54.997Z,3.30
2019-04-14T04:43:21.318Z,3.67
2019-04-14T04:45:47.471Z,3.70
2019-04-14T04:48:15.132Z,3.43
2019-04-14T04:50:41.343Z,4.10
2019-04-14T04:53:07.573Z,3.37
2019-04-14T04:55:33.722Z,2.63
2019-04-14T04:58:01.247Z,3.63
2019-04-14T05:00:27.680Z,3.43
2019-04-14T05:02:55.299Z,2.70
2019-04-14T05:06:13.341Z,2.80
2019-04-14T05:08:41.693Z,2.67
2019-04-14T05:11:09.761Z,3.13
2019-04-14T05:13:38.177Z,2.30
2019-04-14T05:16:04.324Z,2.60
2019-04-14T05:18:31.315Z,2.33
2019-04-14T05:20:57.568Z,2.40
2019-04-14T05:23:23.835Z,2.50
2019-04-14T05:25:50.049Z,2.50
2019-04-14T05:28:17.704Z,2.77
2019-04-14T05:30:44.038Z,2.37
2019-04-14T05:33:10.245Z,2.40
2019-04-14T05:35:36.408Z,2.20
2019-04-14T05:38:03.838Z,2.70
2019-04-14T05:40:30.281Z,2.17
2019-04-14T05:42:56.479Z,3.20
2019-04-14T05:45:22.635Z,2.77
2019-04-14T05:47:50.023Z,2.40
2019-04-14T05:50:16.419Z,2.33
2019-04-14T05:52:42.621Z,2.63
2019-04-14T05:55:08.995Z,3.03
2019-04-14T05:57:35.255Z,3.30
2019-04-14T06:00:05.895Z,2.90
2019-04-14T06:02:33.500Z,2.47
2019-04-14T06:04:59.819Z,2.57
2019-04-14T06:07:25.981Z,2.47
2019-04-14T06:09:52.168Z,2.10
2019-04-14T06:12:18.383Z,2.47
2019-04-14T06:14:44.881Z,2.43
2019-04-14T06:17:11.027Z,2.60
2019-04-14T06:19:40.546Z,2.77
2019-04-14T06:22:05.288Z,2.60
2019-04-14T06:24:31.517Z,2.40
2019-04-14T06:26:57.994Z,2.90
2019-04-14T06:29:24.224Z,3.00
2019-04-14T06:31:57.971Z,2.53
2019-04-14T06:34:28.790Z,2.50
2019-04-14T06:36:59.742Z,2.53
2019-04-14T06:39:27.883Z,2.50
2019-04-14T06:41:54.146Z,2.33
2019-04-14T06:44:20.352Z,2.20
2019-04-14T06:46:46.495Z,2.50
2019-04-14T06:49:12.731Z,2.40
2019-04-14T06:51:38.876Z,2.40
2019-04-14T06:54:05.164Z,2.53
2019-04-14T06:56:31.297Z,2.50
2019-04-14T06:58:57.503Z,2.37
2019-04-14T07:01:23.653Z,2.97
2019-04-14T07:03:49.803Z,2.80
2019-04-14T07:06:16.373Z,3.07
2019-04-14T07:08:42.520Z,2.90
2019-04-14T07:11:08.725Z,3.27
2019-04-14T07:13:34.984Z,3.60
2019-04-14T07:16:08.203Z,4.33
2019-04-14T07:18:34.444Z,3.60
2019-04-14T07:21:07.600Z,3.23
2019-04-14T07:23:34.246Z,4.60
2019-04-14T07:26:00.944Z,9.70
2019-04-14T07:28:27.455Z,10.37
2019-04-14T07:31:01.585Z,7.73
2019-04-14T07:33:32.731Z,5.10
2019-04-14T07:36:17.361Z,5.77
2019-04-14T07:38:45.734Z,4.17
2019-04-14T07:41:16.762Z,9.77
2019-04-14T07:43:47.487Z,8.63
2019-04-14T07:46:21.556Z,6.13
2019-04-14T07:49:06.400Z,6.67
2019-04-14T07:51:37.492Z,4.73
2019-04-14T07:54:05.466Z,4.03
2019-04-14T07:56:52.115Z,3.50
2019-04-14T07:59:20.154Z,3.13
2019-04-14T08:02:00.543Z,3.10
2019-04-14T08:04:37.511Z,3.70
2019-04-14T08:07:03.822Z,3.83
2019-04-14T08:09:29.991Z,3.40
2019-04-14T08:11:57.031Z,4.70
2019-04-14T08:14:23.173Z,3.67
2019-04-14T08:16:49.472Z,3.27
2019-04-14T08:19:15.615Z,3.73
2019-04-14T08:21:41.826Z,4.57
2019-04-14T08:24:07.988Z,3.33
2019-04-14T08:26:34.253Z,3.80
2019-04-14T08:29:00.418Z,3.30
2019-04-14T08:31:26.626Z,3.40
2019-04-14T08:33:53.054Z,3.37
2019-04-14T08:36:19.514Z,3.53
2019-04-14T08:38:45.683Z,3.67
2019-04-14T08:41:11.900Z,3.47
2019-04-14T08:43:45.908Z,3.43
2019-04-14T08:46:22.772Z,3.90
2019-04-14T08:48:51.041Z,4.80
2019-04-14T08:51:21.804Z,4.43
2019-04-14T08:53:49.847Z,3.37
2019-04-14T08:56:29.961Z,3.83
2019-04-14T08:59:06.541Z,3.83
2019-04-14T09:01:37.524Z,4.33
2019-04-14T09:04:14.509Z,3.67
2019-04-14T09:06:42.629Z,3.67
2019-04-14T09:09:26.109Z,5.63
2019-04-14T09:12:00.514Z,4.50
2019-04-14T09:14:26.727Z,4.40
2019-04-14T09:16:52.924Z,4.33
2019-04-14T09:19:19.063Z,4.10
2019-04-14T09:21:45.207Z,4.73
2019-04-14T09:24:11.419Z,4.53
2019-04-14T09:26:37.570Z,5.10
2019-04-14T09:29:03.815Z,4.03
2019-04-14T09:31:29.950Z,5.83
2019-04-14T09:33:56.154Z,4.40
2019-04-14T09:36:22.299Z,4.23
2019-04-14T09:38:48.505Z,3.93
2019-04-14T09:41:14.648Z,4.93
2019-04-14T09:43:40.879Z,4.50
2019-04-14T09:46:07.010Z,4.63
2019-04-14T09:48:33.226Z,4.63
2019-04-14T09:51:04.915Z,4.90
2019-04-14T09:53:27.487Z,4.63
2019-04-14T09:55:53.627Z,4.90
2019-04-14T09:58:19.869Z,5.20
2019-04-14T10:00:46.338Z,5.20
2019-04-14T10:03:12.549Z,4.77
2019-04-14T10:05:38.748Z,5.60
2019-04-14T10:08:05.029Z,5.77
2019-04-14T10:10:31.193Z,5.20
2019-04-14T10:12:57.687Z,5.10
2019-04-14T10:15:23.843Z,4.83
2019-04-14T10:17:50.040Z,6.13
2019-04-14T10:20:16.443Z,5.90
2019-04-14T10:22:42.654Z,5.33
2019-04-14T10:25:08.961Z,5.57
2019-04-14T10:27:35.164Z,5.40
2019-04-14T10:30:02.876Z,5.60
2019-04-14T10:32:29.030Z,5.90
2019-04-14T10:34:55.248Z,6.53
2019-04-14T10:37:21.634Z,5.50
2019-04-14T10:39:47.847Z,6.23
2019-04-14T10:42:14.239Z,6.10
2019-04-14T10:44:40.464Z,5.70
2019-04-14T10:47:06.984Z,6.60
2019-04-14T10:49:33.181Z,6.83
2019-04-14T10:51:59.719Z,7.87
2019-04-14T10:54:26.212Z,7.47
2019-04-14T10:56:52.343Z,6.20
2019-04-14T10:59:18.549Z,6.20
2019-04-14T11:01:44.694Z,6.50
2019-04-14T11:04:11.027Z,6.13
2019-04-14T11:06:48.203Z,7.53
2019-04-14T11:09:14.978Z,6.40
2019-04-14T11:11:41.188Z,8.63
2019-04-14T11:14:07.404Z,7.63
2019-04-14T11:16:33.629Z,8.07
2019-04-14T11:18:59.763Z,8.07
2019-04-14T11:21:25.960Z,7.03
2019-04-14T11:23:52.098Z,9.27
2019-04-14T11:26:18.316Z,8.63
2019-04-14T11:28:44.462Z,8.10
2019-04-14T11:31:11.194Z,9.67
2019-04-14T11:33:45.250Z,7.93
2019-04-14T11:36:13.684Z,9.20
2019-04-14T11:38:44.635Z,11.90
2019-04-14T11:41:12.752Z,9.47
2019-04-14T11:43:38.888Z,9.20
2019-04-14T11:46:05.115Z,9.77
2019-04-14T11:48:31.258Z,8.17
2019-04-14T11:50:57.466Z,9.90
2019-04-14T11:53:23.599Z,10.27
2019-04-14T11:55:50.195Z,11.40
2019-04-14T11:58:16.333Z,10.10
2019-04-14T12:01:02.815Z,10.60
2019-04-14T12:03:32.488Z,10.10
2019-04-14T12:06:01.024Z,10.07
2019-04-14T12:08:29.070Z,11.23
2019-04-14T12:10:55.287Z,11.27
2019-04-14T12:13:21.496Z,8.97
2019-04-14T12:15:48.008Z,9.70
2019-04-14T12:18:14.158Z,8.87
2019-04-14T12:20:40.303Z,9.47
2019-04-14T12:23:06.559Z,9.43
2019-04-14T12:25:32.699Z,8.93
2019-04-14T12:28:00.045Z,9.10
2019-04-14T12:30:26.919Z,9.63
2019-04-14T12:32:53.176Z,9.97
2019-04-14T12:35:19.526Z,9.80
2019-04-14T12:37:45.753Z,10.30
2019-04-14T12:40:12.831Z,11.80
2019-04-14T12:42:49.913Z,9.13
2019-04-14T12:45:33.299Z,9.33
2019-04-14T12:48:02.680Z,8.83
2019-04-14T12:50:30.736Z,8.97
2019-04-14T12:52:57.456Z,9.27
2019-04-14T12:55:23.608Z,9.27
2019-04-14T12:57:54.765Z,10.20
2019-04-14T13:00:38.107Z,9.60
2019-04-14T13:03:04.811Z,9.57
2019-04-14T13:05:31.273Z,10.50
2019-04-14T13:07:57.488Z,9.87
2019-04-14T13:10:23.642Z,12.13
2019-04-14T13:12:49.855Z,10.27
2019-04-14T13:15:16.083Z,9.90
2019-04-14T13:17:42.246Z,9.67
2019-04-14T13:20:09.803Z,12.37
2019-04-14T13:22:36.009Z,10.73
2019-04-14T13:25:02.519Z,12.30
2019-04-14T13:27:28.764Z,10.90
2019-04-14T13:29:54.947Z,12.17
2019-04-14T13:32:21.087Z,12.80
2019-04-14T13:34:47.595Z,12.43
2019-04-14T13:37:14.040Z,11.80
2019-04-14T13:39:40.226Z,12.27
2019-04-14T13:42:06.387Z,13.13
2019-04-14T13:44:32.840Z,11.17
2019-04-14T13:46:59.036Z,12.23
2019-04-14T13:49:25.515Z,12.77
2019-04-14T13:51:51.657Z,12.90
2019-04-14T13:54:17.968Z,13.57
2019-04-14T13:56:44.134Z,14.67
2019-04-14T13:59:10.602Z,14.00
2019-04-14T14:01:36.737Z,14.07
2019-04-14T14:04:03.163Z,13.80
2019-04-14T14:06:29.353Z,14.63
2019-04-14T14:08:55.815Z,14.80
2019-04-14T14:11:27.265Z,14.13
2019-04-14T14:14:01.440Z,13.80
2019-04-14T14:16:46.286Z,13.57
2019-04-14T14:19:20.526Z,13.33
2019-04-14T14:21:48.570Z,14.27
2019-04-14T14:24:22.496Z,13.73
2019-04-14T14:26:56.448Z,13.60
2019-04-14T14:29:22.670Z,13.27
2019-04-14T14:31:49.281Z,13.13
2019-04-14T14:34:15.450Z,12.80
2019-04-14T14:36:41.671Z,12.57
2019-04-14T14:39:09.622Z,12.57
2019-04-14T14:41:36.128Z,12.40
2019-04-14T14:44:02.520Z,12.93
2019-04-14T14:46:36.769Z,13.20
2019-04-14T14:49:03.879Z,13.50
2019-04-14T14:51:34.652Z,12.73
2019-04-14T14:54:00.815Z,12.37
2019-04-14T14:56:27.063Z,13.37
2019-04-14T14:58:53.185Z,12.13
2019-04-14T15:01:19.510Z,12.23
2019-04-14T15:03:46.039Z,11.37
2019-04-14T15:06:12.600Z,11.87
2019-04-14T15:08:38.732Z,12.00
2019-04-14T15:11:04.963Z,11.43
2019-04-14T15:13:31.183Z,10.87
2019-04-14T15:15:57.414Z,10.93
2019-04-14T15:18:23.802Z,11.57
2019-04-14T15:20:50.288Z,10.20
2019-04-14T15:23:24.768Z,10.97
2019-04-14T15:25:44.566Z,11.10
2019-04-14T15:28:10.775Z,10.67
2019-04-14T15:30:37.003Z,11.03
2019-04-14T15:33:03.484Z,11.43
2019-04-14T15:35:30.433Z,10.70
2019-04-14T15:37:56.669Z,10.47
2019-04-14T15:40:22.820Z,11.47
2019-04-14T15:42:49.037Z,11.10
2019-04-14T15:45:15.505Z,10.13
2019-04-14T15:48:01.684Z,10.70
2019-04-14T15:50:27.903Z,10.33
2019-04-14T15:52:54.125Z,10.60
2019-04-14T15:55:20.280Z,10.90
2019-04-14T15:58:05.462Z,12.10
2019-04-14T16:00:39.511Z,12.03
2019-04-14T16:03:10.698Z,11.43
2019-04-14T16:05:41.704Z,11.17
2019-04-14T16:08:12.800Z,12.00
2019-04-14T16:10:56.126Z,12.43
2019-04-14T16:13:40.969Z,11.03
2019-04-14T16:16:09.248Z,11.13
2019-04-14T16:18:52.559Z,12.50
2019-04-14T16:21:18.715Z,12.83
2019-04-14T16:23:50.647Z,12.63
2019-04-14T16:26:15.403Z,12.87
2019-04-14T16:28:43.802Z,11.93
2019-04-14T16:31:26.797Z,12.10
2019-04-14T16:34:11.698Z,11.80
2019-04-14T16:36:37.840Z,11.40
2019-04-14T16:39:05.395Z,12.60
2019-04-14T16:41:31.613Z,11.17
2019-04-14T16:43:57.885Z,13.33
2019-04-14T16:46:24.043Z,11.77
2019-04-14T16:48:50.270Z,13.77
2019-04-14T16:51:18.409Z,11.63
2019-04-14T16:53:46.572Z,11.50
2019-04-14T16:56:26.810Z,14.07
2019-04-14T16:58:55.029Z,12.23
2019-04-14T17:01:26.086Z,12.63
2019-04-14T17:03:52.312Z,12.77
2019-04-14T17:06:18.463Z,12.83
2019-04-14T17:08:44.690Z,12.90
2019-04-14T17:11:10.826Z,12.83
2019-04-14T17:13:39.145Z,11.77
2019-04-14T17:16:24.025Z,12.73
2019-04-14T17:18:52.210Z,10.80
2019-04-14T17:21:20.257Z,11.40
2019-04-14T17:23:48.414Z,11.87
2019-04-14T17:26:28.698Z,11.80
2019-04-14T17:28:57.318Z,11.63
2019-04-14T17:31:25.360Z,12.03
2019-04-14T17:33:56.337Z,12.20
2019-04-14T17:36:24.489Z,11.90
2019-04-14T17:38:55.465Z,12.03
2019-04-14T17:41:26.400Z,11.30
2019-04-14T17:43:57.372Z,11.77
2019-04-14T17:46:40.657Z,11.10
2019-04-14T17:49:11.684Z,11.27
2019-04-14T17:51:46.043Z,11.60
2019-04-14T17:54:14.098Z,10.77
2019-04-14T17:56:48.199Z,11.27
2019-04-14T17:59:19.213Z,11.43
2019-04-14T18:01:53.499Z,11.17
2019-04-14T18:04:33.470Z,11.73
2019-04-14T18:07:05.949Z,12.43
2019-04-14T18:09:39.745Z,11.60
2019-04-14T18:12:14.027Z,11.63
2019-04-14T18:15:00.566Z,12.57
2019-04-14T18:17:28.987Z,12.20
2019-04-14T18:20:09.275Z,11.77
2019-04-14T18:22:35.524Z,11.53
2019-04-14T18:25:03.372Z,11.93
2019-04-14T18:27:31.544Z,12.47
2019-04-14T18:29:59.598Z,11.57
2019-04-14T18:32:27.779Z,11.43
2019-04-14T18:35:07.681Z,11.53
2019-04-14T18:37:51.124Z,11.37
2019-04-14T18:40:35.620Z,10.30
2019-04-14T18:43:12.769Z,11.53
2019-04-14T18:45:42.878Z,11.47
2019-04-14T18:48:13.834Z,12.93
2019-04-14T18:50:41.874Z,11.50
2019-04-14T18:53:22.300Z,11.60
2019-04-14T18:55:59.587Z,11.63
2019-04-14T18:58:44.632Z,10.73
2019-04-14T19:01:12.695Z,10.97
2019-04-14T19:03:39.199Z,12.57
2019-04-14T19:06:05.612Z,12.30
2019-04-14T19:08:31.843Z,12.13
2019-04-14T19:11:15.168Z,12.30
2019-04-14T19:13:49.409Z,13.27
2019-04-14T19:16:38.534Z,12.33
2019-04-14T19:18:56.727Z,13.47
2019-04-14T19:21:24.765Z,11.70
2019-04-14T19:23:51.057Z,13.73
2019-04-14T19:26:17.204Z,11.83
2019-04-14T19:28:43.432Z,11.97
2019-04-14T19:31:09.669Z,12.40
2019-04-14T19:33:35.926Z,11.23
2019-04-14T19:36:02.055Z,11.83
2019-04-14T19:38:28.563Z,11.83
2019-04-14T19:40:54.741Z,13.37
2019-04-14T19:43:23.847Z,12.07
2019-04-14T19:45:49.348Z,13.37
2019-04-14T19:48:15.564Z,13.27
2019-04-14T19:50:42.151Z,12.70
2019-04-14T19:53:08.304Z,12.87
2019-04-14T19:55:37.139Z,12.97
2019-04-14T19:58:02.623Z,12.53
2019-04-14T20:00:28.921Z,14.57
2019-04-14T20:02:55.096Z,13.87
2019-04-14T20:05:21.307Z,13.37
2019-04-14T20:07:47.469Z,13.07
2019-04-14T20:10:14.016Z,12.13
2019-04-14T20:12:40.505Z,11.87
2019-04-14T20:15:08.823Z,12.57
2019-04-14T20:17:36.894Z,14.43
2019-04-14T20:20:13.741Z,12.93
2019-04-14T20:22:57.473Z,12.83
2019-04-14T20:25:33.966Z,11.57
2019-04-14T20:27:58.389Z,12.90
2019-04-14T20:30:29.354Z,13.27
2019-04-14T20:32:55.498Z,12.50
2019-04-14T20:35:21.718Z,12.77
2019-04-14T20:37:47.910Z,13.03
2019-04-14T20:40:14.317Z,12.23
2019-04-14T20:42:40.501Z,14.20
2019-04-14T20:45:09.065Z,13.63
2019-04-14T20:47:35.232Z,12.53
2019-04-14T20:50:02.171Z,12.60
2019-04-14T20:52:28.573Z,12.83
2019-04-14T20:54:54.780Z,12.43
2019-04-14T20:57:21.156Z,12.40
2019-04-14T20:59:47.294Z,12.10
2019-04-14T21:02:21.629Z,12.00
2019-04-14T21:04:58.804Z,13.00
2019-04-14T21:07:43.339Z,12.67
2019-04-14T21:10:11.474Z,14.00
2019-04-14T21:12:54.962Z,13.53
2019-04-14T21:15:29.118Z,13.30
2019-04-14T21:17:57.242Z,13.30
2019-04-14T21:20:25.350Z,12.40
2019-04-14T21:22:53.527Z,11.90
2019-04-14T21:25:38.107Z,12.77
2019-04-14T21:28:18.354Z,13.13
2019-04-14T21:30:58.291Z,12.10
2019-04-14T21:33:29.091Z,12.77
2019-04-14T21:35:57.151Z,13.63
2019-04-14T21:38:27.928Z,12.30
2019-04-14T21:40:55.960Z,14.73
2019-04-14T21:43:22.177Z,13.03
2019-04-14T21:45:48.307Z,13.40
2019-04-14T21:48:14.526Z,12.30
2019-04-14T21:50:40.664Z,12.33
2019-04-14T21:53:07.260Z,13.90
2019-04-14T21:55:33.395Z,11.67
2019-04-14T21:58:01.499Z,11.47
2019-04-14T22:01:05.680Z,13.33
2019-04-14T22:03:34.006Z,12.67
2019-04-14T22:06:04.728Z,13.60
2019-04-14T22:08:33.166Z,12.40
2019-04-14T22:11:04.399Z,12.03
2019-04-14T22:13:30.733Z,11.77
2019-04-14T22:15:57.279Z,11.07
2019-04-14T22:18:23.508Z,11.73
2019-04-14T22:20:49.777Z,10.73
2019-04-14T22:23:16.042Z,11.30
2019-04-14T22:25:42.168Z,11.00
2019-04-14T22:28:08.574Z,11.63
2019-04-14T22:30:34.745Z,10.47
2019-04-14T22:33:00.937Z,14.67
2019-04-14T22:35:27.188Z,12.83
2019-04-14T22:37:53.333Z,11.43
2019-04-14T22:40:19.554Z,10.80
2019-04-14T22:42:45.695Z,10.93
2019-04-14T22:45:12.116Z,11.10
2019-04-14T22:47:38.234Z,11.33
2019-04-14T22:50:05.035Z,11.77
2019-04-14T22:52:31.256Z,10.37
2019-04-14T22:54:57.751Z,10.53
2019-04-14T22:57:23.898Z,10.10
2019-04-14T22:59:50.436Z,10.50
2019-04-14T23:02:27.485Z,10.53
2019-04-14T23:05:13.944Z,10.00
2019-04-14T23:07:41.998Z,9.33
2019-04-14T23:10:26.925Z,10.77
2019-04-14T23:12:57.931Z,10.50
2019-04-14T23:15:26.447Z,10.57
2019-04-14T23:17:54.501Z,10.30
2019-04-14T23:20:25.723Z,9.60
2019-04-14T23:23:10.576Z,10.80
2019-04-14T23:25:36.789Z,10.50
2019-04-14T23:28:02.906Z,9.83
2019-04-14T23:30:29.131Z,10.70
2019-04-14T23:32:55.283Z,11.30
2019-04-14T23:35:21.497Z,10.53
2019-04-14T23:37:47.677Z,11.10
2019-04-14T23:40:14.052Z,10.60
2019-04-14T23:42:40.205Z,10.63
2019-04-14T23:45:06.826Z,10.27
2019-04-14T23:47:32.956Z,10.13
2019-04-14T23:49:59.142Z,9.90
2019-04-14T23:52:25.408Z,11.20
2019-04-14T23:54:51.613Z,10.80
2019-04-14T23:57:17.744Z,9.57
2019-04-14T23:59:43.980Z,10.07
